createdAt,value
2022-08-05T00:00:21.620Z,58.13
2022-08-05T00:02:50.914Z,57.45
2022-08-05T00:06:02.110Z,57.25
2022-08-05T00:08:32.794Z,57.32
2022-08-05T00:11:00.788Z,57.87
2022-08-05T00:13:38.763Z,58.08
2022-08-05T00:16:10.981Z,58.33
2022-08-05T00:18:42.554Z,58.25
2022-08-05T00:21:12.102Z,58.08
2022-08-05T00:23:46.268Z,57.73
2022-08-05T00:26:16.328Z,57.48
2022-08-05T00:28:43.902Z,58.01
2022-08-05T00:31:13.086Z,58.29
2022-08-05T00:34:55.494Z,57.90
2022-08-05T00:37:09.861Z,57.83
2022-08-05T00:39:14.518Z,57.94
2022-08-05T00:41:55.278Z,57.89
2022-08-05T00:44:31.004Z,58.30
2022-08-05T00:47:02.071Z,58.31
2022-08-05T00:49:44.400Z,58.31
2022-08-05T00:52:18.929Z,58.71
2022-08-05T00:54:56.311Z,58.20
2022-08-05T00:57:25.438Z,58.44
2022-08-05T00:59:58.918Z,58.43
2022-08-05T01:02:25.833Z,58.33
2022-08-05T01:04:52.798Z,58.78
2022-08-05T01:07:19.778Z,59.04
2022-08-05T01:09:47.097Z,59.05
2022-08-05T01:12:24.396Z,59.34
2022-08-05T01:15:06.844Z,59.23
2022-08-05T01:18:01.198Z,58.89
2022-08-05T01:21:00.820Z,58.83
2022-08-05T01:24:01.726Z,59.06
2022-08-05T01:26:58.667Z,59.49
2022-08-05T01:29:43.044Z,59.35
2022-08-05T01:32:18.375Z,58.98
2022-08-05T01:34:50.700Z,58.84
2022-08-05T01:37:44.493Z,58.87
2022-08-05T01:40:17.919Z,59.21
2022-08-05T01:42:47.275Z,58.89
2022-08-05T01:45:16.644Z,58.86
2022-08-05T01:47:45.120Z,59.33
2022-08-05T01:50:20.263Z,58.81
2022-08-05T01:53:02.486Z,59.05
2022-08-05T01:55:36.047Z,59.57
2022-08-05T01:58:12.558Z,59.21
2022-08-05T02:00:49.095Z,59.21
2022-08-05T02:03:29.108Z,59.17
2022-08-05T02:06:33.881Z,59.42
2022-08-05T02:08:57.774Z,60.04
2022-08-05T02:11:32.759Z,59.68
2022-08-05T02:14:14.694Z,59.47
2022-08-05T02:16:52.423Z,59.39
2022-08-05T02:19:28.898Z,59.62
2022-08-05T02:22:27.350Z,59.26
2022-08-05T02:25:02.585Z,59.69
2022-08-05T02:27:57.881Z,59.41
2022-08-05T02:30:26.922Z,59.48
2022-08-05T02:32:56.202Z,59.75
2022-08-05T02:35:33.367Z,59.64
2022-08-05T02:38:09.512Z,60.49
2022-08-05T02:40:41.183Z,60.36
2022-08-05T02:43:10.987Z,60.12
2022-08-05T02:45:52.866Z,60.64
2022-08-05T02:48:29.665Z,60.81
2022-08-05T02:51:05.685Z,59.99
2022-08-05T02:53:39.163Z,60.61
2022-08-05T02:56:09.608Z,59.99
2022-08-05T02:58:44.819Z,59.80
2022-08-05T03:01:23.423Z,60.41
2022-08-05T03:04:02.764Z,59.63
2022-08-05T03:06:55.156Z,60.15
2022-08-05T03:09:36.267Z,60.45
2022-08-05T03:12:06.550Z,60.14
2022-08-05T03:14:35.445Z,60.83
2022-08-05T03:17:12.958Z,60.29
2022-08-05T03:19:39.942Z,60.80
2022-08-05T03:22:16.457Z,60.32
2022-08-05T03:24:51.040Z,60.35
2022-08-05T03:27:22.955Z,59.98
2022-08-05T03:30:07.305Z,60.17
2022-08-05T03:32:36.721Z,60.95
2022-08-05T03:35:04.530Z,61.25
2022-08-05T03:37:46.152Z,60.94
2022-08-05T03:40:15.317Z,60.85
2022-08-05T03:42:52.799Z,60.60
2022-08-05T03:45:21.585Z,61.08
2022-08-05T03:47:51.145Z,61.29
2022-08-05T03:50:18.426Z,61.21
2022-08-05T03:55:49.991Z,60.93
2022-08-05T03:56:11.921Z,60.64
2022-08-05T03:58:41.110Z,60.87
2022-08-05T04:01:11.218Z,60.62
2022-08-05T04:03:56.945Z,61.46
2022-08-05T04:06:30.382Z,61.18
2022-08-05T04:08:58.782Z,60.87
2022-08-05T04:11:47.304Z,61.14
2022-08-05T04:14:18.198Z,60.15
2022-08-05T04:16:45.310Z,61.19
2022-08-05T04:19:13.292Z,60.92
2022-08-05T04:22:09.509Z,59.80
2022-08-05T04:24:28.315Z,60.46
2022-08-05T04:26:58.211Z,59.91
2022-08-05T04:29:27.169Z,59.81
2022-08-05T04:31:54.380Z,58.55
2022-08-05T04:34:33.643Z,58.44
2022-08-05T04:37:04.090Z,58.56
2022-08-05T04:39:32.434Z,58.52
2022-08-05T04:42:03.796Z,57.89
2022-08-05T04:44:30.890Z,58.10
2022-08-05T04:47:09.744Z,58.07
2022-08-05T04:50:02.866Z,57.86
2022-08-05T04:52:27.708Z,57.51
2022-08-05T04:54:57.289Z,57.46
2022-08-05T04:57:29.257Z,57.93
2022-08-05T04:59:58.391Z,57.63
2022-08-05T05:02:41.255Z,57.04
2022-08-05T05:05:16.987Z,57.54
2022-08-05T05:08:29.984Z,57.75
2022-08-05T05:10:57.562Z,56.60
2022-08-05T05:13:24.555Z,57.11
2022-08-05T05:15:57.320Z,57.37
2022-08-05T05:18:33.340Z,56.41
2022-08-05T05:21:03.233Z,56.90
2022-08-05T05:24:01.876Z,56.90
2022-08-05T05:26:17.708Z,57.12
2022-08-05T05:28:45.336Z,56.22
2022-08-05T05:31:12.839Z,56.58
2022-08-05T05:33:59.872Z,56.02
2022-08-05T05:36:28.306Z,55.49
2022-08-05T05:38:57.314Z,55.31
2022-08-05T05:41:24.936Z,55.58
2022-08-05T05:43:57.084Z,55.88
2022-08-05T05:46:27.162Z,55.52
2022-08-05T05:48:54.229Z,54.59
2022-08-05T05:51:25.891Z,55.10
2022-08-05T05:53:59.517Z,54.26
2022-08-05T05:56:32.198Z,54.02
2022-08-05T05:59:06.807Z,53.62
2022-08-05T06:01:37.506Z,53.69
2022-08-05T06:04:12.679Z,53.62
2022-08-05T06:06:47.607Z,53.89
2022-08-05T06:09:36.282Z,53.28
2022-08-05T06:12:04.561Z,52.89
2022-08-05T06:14:32.241Z,52.60
2022-08-05T06:17:01.928Z,53.04
2022-08-05T06:19:56.927Z,52.90
2022-08-05T06:22:33.449Z,52.70
2022-08-05T06:25:58.975Z,51.55
2022-08-05T06:28:11.466Z,51.62
2022-08-05T06:30:37.342Z,50.96
2022-08-05T06:33:04.302Z,51.33
2022-08-05T06:36:07.851Z,48.65
2022-08-05T06:38:18.064Z,48.99
2022-08-05T06:41:04.428Z,47.44
2022-08-05T06:43:58.516Z,47.44
2022-08-05T06:46:18.236Z,48.81
2022-08-05T06:48:55.335Z,47.35
2022-08-05T06:51:30.255Z,46.15
2022-08-05T06:54:03.391Z,48.73
2022-08-05T06:56:34.261Z,47.86
2022-08-05T06:59:03.945Z,46.15
2022-08-05T07:01:36.484Z,45.86
2022-08-05T07:04:04.211Z,46.85
2022-08-05T07:06:31.907Z,45.87
2022-08-05T07:09:03.959Z,46.61
2022-08-05T07:11:33.136Z,44.62
2022-08-05T07:14:29.704Z,43.06
2022-08-05T07:17:58.679Z,42.57
2022-08-05T07:22:37.817Z,41.26
2022-08-05T07:25:24.079Z,41.01
2022-08-05T07:27:58.828Z,40.71
2022-08-05T07:30:33.150Z,40.69
2022-08-05T07:33:05.171Z,39.95
2022-08-05T07:36:01.693Z,39.04
2022-08-05T07:38:32.710Z,38.65
2022-08-05T07:42:09.013Z,39.67
2022-08-05T07:43:52.793Z,38.61
2022-08-05T07:46:25.207Z,38.52
2022-08-05T07:49:02.777Z,37.87
2022-08-05T07:51:36.625Z,37.48
2022-08-05T07:54:05.686Z,37.31
2022-08-05T07:56:59.865Z,36.63
2022-08-05T07:59:30.983Z,37.31
2022-08-05T08:02:07.357Z,37.16
2022-08-05T08:04:44.900Z,36.32
2022-08-05T08:07:13.180Z,36.60
2022-08-05T08:09:40.329Z,36.40
2022-08-05T08:12:35.611Z,35.83
2022-08-05T08:14:54.506Z,36.15
2022-08-05T08:17:21.794Z,36.42
2022-08-05T08:20:22.391Z,35.93
2022-08-05T08:22:36.284Z,35.46
2022-08-05T08:25:16.358Z,36.06
2022-08-05T08:27:47.545Z,36.82
2022-08-05T08:30:29.727Z,36.30
2022-08-05T08:33:04.432Z,36.11
2022-08-05T08:35:41.391Z,36.04
2022-08-05T08:38:35.425Z,34.58
2022-08-05T08:41:10.658Z,34.82
2022-08-05T08:45:24.311Z,34.95
2022-08-05T08:46:32.320Z,34.40
2022-08-05T08:50:22.470Z,33.92
2022-08-05T08:52:04.128Z,34.75
2022-08-05T08:54:42.217Z,33.53
2022-08-05T08:57:11.458Z,33.87
2022-08-05T08:59:41.962Z,32.85
2022-08-05T09:02:16.646Z,33.19
2022-08-05T09:04:58.338Z,33.55
2022-08-05T09:07:56.002Z,33.31
2022-08-05T09:10:21.917Z,33.05
2022-08-05T09:12:55.906Z,33.13
2022-08-05T09:15:23.479Z,32.77
2022-08-05T09:17:53.025Z,32.07
2022-08-05T09:20:36.484Z,31.83
2022-08-05T09:23:09.182Z,32.18
2022-08-05T09:26:01.915Z,32.92
2022-08-05T09:28:31.446Z,33.63
2022-08-05T09:31:22.093Z,33.77
2022-08-05T09:33:59.081Z,33.27
2022-08-05T09:36:45.676Z,32.32
2022-08-05T09:39:41.280Z,31.95
2022-08-05T09:42:22.997Z,31.75
2022-08-05T09:44:56.491Z,31.59
2022-08-05T09:47:29.678Z,31.35
2022-08-05T09:50:13.760Z,30.50
2022-08-05T09:52:45.926Z,29.75
2022-08-05T09:55:56.675Z,29.17
2022-08-05T09:58:10.197Z,28.71
2022-08-05T10:00:38.419Z,28.32
2022-08-05T10:03:11.772Z,28.84
2022-08-05T10:05:41.851Z,28.76
2022-08-05T10:08:34.948Z,28.84
2022-08-05T10:10:55.944Z,28.84
2022-08-05T10:13:46.283Z,28.69
2022-08-05T10:16:41.893Z,29.21
2022-08-05T10:19:23.528Z,29.67
2022-08-05T10:21:59.441Z,31.13
2022-08-05T10:24:27.371Z,29.83
2022-08-05T10:27:00.608Z,30.80
2022-08-05T10:30:07.180Z,31.05
2022-08-05T10:32:53.120Z,30.37
2022-08-05T10:35:04.346Z,30.47
2022-08-05T10:37:40.302Z,30.50
2022-08-05T10:40:35.797Z,30.30
2022-08-05T10:43:49.010Z,31.05
2022-08-05T10:46:18.797Z,31.40
2022-08-05T10:49:01.440Z,31.58
2022-08-05T10:51:57.708Z,30.91
2022-08-05T10:55:02.586Z,30.31
2022-08-05T10:57:32.473Z,30.62
2022-08-05T11:00:20.231Z,31.41
2022-08-05T11:03:23.410Z,31.63
2022-08-05T11:06:15.326Z,31.89
2022-08-05T11:09:24.456Z,30.94
2022-08-05T11:12:26.642Z,32.07
2022-08-05T11:15:20.143Z,31.71
2022-08-05T11:18:09.562Z,32.24
2022-08-05T11:20:43.837Z,32.19
2022-08-05T11:24:05.259Z,32.98
2022-08-05T11:26:32.932Z,31.67
2022-08-05T11:29:13.175Z,31.17
2022-08-05T11:31:54.420Z,30.91
2022-08-05T11:34:37.788Z,31.03
2022-08-05T11:37:55.151Z,30.70
2022-08-05T11:39:55.350Z,31.46
2022-08-05T11:42:28.288Z,29.49
2022-08-05T11:45:03.259Z,30.74
2022-08-05T11:47:49.789Z,30.70
2022-08-05T11:50:18.245Z,30.59
2022-08-05T11:52:46.162Z,30.42
2022-08-05T11:55:16.654Z,30.06
2022-08-05T11:58:09.469Z,30.29
2022-08-05T12:00:38.414Z,29.29
2022-08-05T12:03:28.764Z,29.88
2022-08-05T12:06:05.909Z,29.45
2022-08-05T12:08:33.888Z,27.73
2022-08-05T12:11:05.918Z,28.41
2022-08-05T12:13:48.628Z,28.09
2022-08-05T12:16:25.397Z,28.46
2022-08-05T12:18:53.656Z,27.83
2022-08-05T12:21:29.845Z,27.95
2022-08-05T12:24:09.399Z,28.51
2022-08-05T12:26:39.205Z,28.83
2022-08-05T12:29:16.136Z,29.09
2022-08-05T12:31:53.821Z,29.09
2022-08-05T12:34:28.723Z,29.29
2022-08-05T12:36:58.362Z,29.35
2022-08-05T12:39:34.366Z,29.10
2022-08-05T12:42:18.103Z,29.57
2022-08-05T12:44:47.634Z,29.06
2022-08-05T12:47:28.796Z,30.42
2022-08-05T12:50:03.593Z,29.08
2022-08-05T12:52:39.293Z,29.38
2022-08-05T12:55:22.100Z,30.05
2022-08-05T12:58:52.625Z,29.44
2022-08-05T13:02:02.134Z,30.02
2022-08-05T13:03:32.270Z,28.99
2022-08-05T13:06:01.555Z,29.00
2022-08-05T13:08:32.108Z,29.26
2022-08-05T13:11:02.464Z,29.78
2022-08-05T13:14:06.601Z,28.25
2022-08-05T13:16:20.830Z,28.87
2022-08-05T13:18:58.378Z,28.48
2022-08-05T13:21:28.457Z,28.58
2022-08-05T13:24:08.825Z,28.97
2022-08-05T13:26:36.293Z,28.36
2022-08-05T13:29:05.234Z,28.86
2022-08-05T13:32:03.498Z,29.06
2022-08-05T13:34:22.502Z,28.77
2022-08-05T13:36:53.256Z,28.64
2022-08-05T13:39:24.592Z,28.78
2022-08-05T13:42:14.757Z,29.51
2022-08-05T13:44:45.846Z,28.70
2022-08-05T13:47:34.843Z,29.01
2022-08-05T13:50:04.415Z,28.64
2022-08-05T13:52:35.211Z,28.90
2022-08-05T13:55:07.606Z,28.71
2022-08-05T13:57:48.523Z,28.01
2022-08-05T14:00:27.271Z,28.52
2022-08-05T14:02:57.990Z,28.59
2022-08-05T14:05:48.188Z,28.24
2022-08-05T14:08:21.168Z,28.30
2022-08-05T14:11:03.244Z,28.02
2022-08-05T14:13:42.309Z,28.14
2022-08-05T14:16:11.545Z,27.85
2022-08-05T14:18:43.689Z,28.47
2022-08-05T14:22:07.325Z,27.73
2022-08-05T14:23:57.876Z,28.34
2022-08-05T14:26:36.775Z,28.20
2022-08-05T14:29:16.710Z,28.06
2022-08-05T14:32:03.582Z,28.53
2022-08-05T14:34:35.346Z,28.75
2022-08-05T14:37:04.819Z,29.67
2022-08-05T14:39:50.214Z,29.17
2022-08-05T14:42:21.795Z,29.83
2022-08-05T14:44:49.523Z,29.83
2022-08-05T14:47:17.115Z,29.69
2022-08-05T14:50:18.285Z,29.87
2022-08-05T14:52:58.355Z,29.64
2022-08-05T14:55:38.683Z,29.19
2022-08-05T14:58:10.827Z,29.82
2022-08-05T15:00:58.800Z,29.32
2022-08-05T15:03:33.389Z,30.58
2022-08-05T15:06:15.048Z,30.16
2022-08-05T15:09:01.448Z,30.88
2022-08-05T15:11:51.920Z,31.19
2022-08-05T15:14:34.447Z,29.61
2022-08-05T15:17:05.501Z,29.82
2022-08-05T15:19:52.544Z,32.29
2022-08-05T15:22:22.452Z,31.87
2022-08-05T15:24:55.108Z,29.84
2022-08-05T15:27:22.088Z,29.65
2022-08-05T15:29:54.202Z,29.72
2022-08-05T15:32:27.374Z,29.83
2022-08-05T15:34:57.166Z,30.01
2022-08-05T15:38:31.749Z,30.12
2022-08-05T15:41:00.647Z,30.22
2022-08-05T15:43:10.877Z,31.58
2022-08-05T15:45:45.924Z,30.31
2022-08-05T15:48:15.193Z,30.29
2022-08-05T15:50:43.544Z,30.42
2022-08-05T15:53:13.063Z,30.42
2022-08-05T15:56:03.072Z,30.94
2022-08-05T15:58:35.715Z,30.74
2022-08-05T16:01:17.441Z,30.59
2022-08-05T16:03:48.315Z,31.06
2022-08-05T16:06:20.245Z,31.52
2022-08-05T16:08:50.847Z,31.10
2022-08-05T16:11:18.663Z,32.23
2022-08-05T16:13:48.594Z,31.08
2022-08-05T16:16:25.095Z,32.93
2022-08-05T16:18:53.123Z,32.60
2022-08-05T16:21:20.808Z,31.27
2022-08-05T16:24:12.709Z,32.03
2022-08-05T16:26:57.211Z,31.81
2022-08-05T16:29:25.959Z,33.82
2022-08-05T16:31:56.282Z,34.09
2022-08-05T16:34:25.806Z,32.12
2022-08-05T16:36:55.052Z,32.64
2022-08-05T16:39:22.979Z,31.75
2022-08-05T16:42:14.484Z,33.71
2022-08-05T16:44:44.222Z,34.51
2022-08-05T16:47:28.536Z,33.72
2022-08-05T16:49:58.491Z,33.57
2022-08-05T16:52:30.779Z,34.99
2022-08-05T16:55:00.754Z,35.86
2022-08-05T16:57:50.471Z,35.11
2022-08-05T17:00:25.913Z,35.40
2022-08-05T17:03:15.422Z,36.09
2022-08-05T17:05:54.047Z,36.85
2022-08-05T17:08:51.888Z,36.07
2022-08-05T17:11:17.457Z,36.54
2022-08-05T17:13:45.622Z,36.64
2022-08-05T17:16:29.819Z,36.28
2022-08-05T17:18:59.953Z,37.05
2022-08-05T17:21:35.325Z,36.85
2022-08-05T17:24:18.481Z,37.17
2022-08-05T17:26:52.938Z,38.25
2022-08-05T17:29:22.362Z,37.45
2022-08-05T17:31:58.383Z,37.43
2022-08-05T17:34:29.756Z,37.81
2022-08-05T17:36:57.404Z,38.12
2022-08-05T17:39:33.590Z,38.15
2022-08-05T17:42:18.474Z,39.15
2022-08-05T17:44:50.435Z,38.61
2022-08-05T17:47:21.900Z,38.43
2022-08-05T17:49:52.022Z,38.67
2022-08-05T17:52:31.110Z,40.18
2022-08-05T17:54:58.226Z,39.08
2022-08-05T17:57:25.213Z,39.94
2022-08-05T18:00:03.639Z,38.77
2022-08-05T18:02:34.219Z,39.50
2022-08-05T18:05:06.274Z,39.43
2022-08-05T18:07:41.657Z,40.89
2022-08-05T18:10:20.436Z,40.90
2022-08-05T18:12:49.695Z,40.24
2022-08-05T18:15:16.762Z,41.06
2022-08-05T18:17:58.712Z,40.60
2022-08-05T18:20:31.607Z,41.16
2022-08-05T18:23:09.509Z,40.22
2022-08-05T18:25:45.303Z,40.71
2022-08-05T18:28:17.673Z,41.05
2022-08-05T18:30:51.353Z,41.16
2022-08-05T18:33:22.614Z,41.47
2022-08-05T18:36:04.256Z,42.78
2022-08-05T18:38:37.614Z,42.13
2022-08-05T18:41:56.219Z,42.63
2022-08-05T18:43:54.701Z,42.55
2022-08-05T18:46:25.906Z,43.05
2022-08-05T18:48:55.994Z,42.52
2022-08-05T18:52:06.034Z,42.59
2022-08-05T18:54:35.083Z,43.20
2022-08-05T18:57:02.838Z,43.24
2022-08-05T18:59:43.267Z,43.38
2022-08-05T19:02:26.435Z,43.81
2022-08-05T19:05:02.228Z,44.18
2022-08-05T19:07:46.097Z,45.14
2022-08-05T19:10:18.779Z,44.30
2022-08-05T19:12:53.864Z,43.91
2022-08-05T19:15:56.885Z,44.21
2022-08-05T19:18:10.694Z,44.33
2022-08-05T19:20:46.726Z,44.92
2022-08-05T19:24:03.523Z,44.76
2022-08-05T19:26:03.005Z,46.13
2022-08-05T19:28:32.871Z,45.08
2022-08-05T19:31:01.002Z,45.64
2022-08-05T19:33:35.937Z,46.09
2022-08-05T19:36:06.368Z,45.79
2022-08-05T19:38:37.132Z,45.54
2022-08-05T19:41:07.157Z,45.69
2022-08-05T19:44:07.072Z,45.71
2022-08-05T19:46:29.366Z,45.46
2022-08-05T19:49:01.186Z,45.30
2022-08-05T19:52:04.552Z,45.46
2022-08-05T19:54:29.395Z,47.10
2022-08-05T19:57:02.256Z,47.60
2022-08-05T19:59:55.576Z,46.98
2022-08-05T20:02:18.169Z,46.97
2022-08-05T20:04:48.279Z,47.08
2022-08-05T20:07:15.908Z,46.44
2022-08-05T20:10:13.596Z,47.15
2022-08-05T20:12:47.597Z,46.67
2022-08-05T20:15:23.030Z,45.31
2022-08-05T20:18:10.569Z,46.29
2022-08-05T20:20:56.100Z,47.18
2022-08-05T20:23:38.783Z,46.62
2022-08-05T20:26:16.259Z,46.88
2022-08-05T20:28:55.911Z,45.72
2022-08-05T20:31:36.836Z,46.17
2022-08-05T20:34:10.686Z,45.32
2022-08-05T20:36:39.056Z,46.18
2022-08-05T20:39:10.304Z,46.77
2022-08-05T20:41:44.278Z,46.71
2022-08-05T20:44:17.445Z,48.29
2022-08-05T20:46:48.179Z,46.67
2022-08-05T20:49:15.433Z,45.83
2022-08-05T20:51:53.341Z,47.16
2022-08-05T20:54:22.650Z,46.55
2022-08-05T20:56:53.102Z,46.51
2022-08-05T20:59:26.901Z,46.33
2022-08-05T21:02:07.745Z,46.46
2022-08-05T21:04:36.434Z,46.45
2022-08-05T21:07:04.955Z,46.53
2022-08-05T21:09:35.412Z,46.11
2022-08-05T21:12:09.120Z,47.16
2022-08-05T21:14:38.849Z,47.39
2022-08-05T21:17:06.282Z,46.84
2022-08-05T21:19:47.122Z,46.71
2022-08-05T21:22:21.628Z,46.86
2022-08-05T21:24:51.553Z,47.23
2022-08-05T21:27:25.338Z,47.46
2022-08-05T21:29:56.465Z,48.20
2022-08-05T21:32:26.648Z,47.73
2022-08-05T21:35:17.728Z,47.54
2022-08-05T21:37:47.207Z,48.44
2022-08-05T21:40:23.911Z,48.83
2022-08-05T21:42:53.589Z,48.82
2022-08-05T21:45:51.488Z,48.36
2022-08-05T21:48:11.248Z,48.62
2022-08-05T21:50:53.059Z,48.09
2022-08-05T21:53:21.770Z,47.99
2022-08-05T21:56:05.571Z,49.28
2022-08-05T21:58:42.006Z,48.96
2022-08-05T22:01:10.816Z,48.51
2022-08-05T22:03:49.088Z,48.53
2022-08-05T22:06:34.802Z,49.30
2022-08-05T22:09:13.256Z,48.85
2022-08-05T22:11:43.353Z,49.56
2022-08-05T22:14:35.043Z,49.42
2022-08-05T22:17:03.805Z,49.26
2022-08-05T22:20:00.389Z,49.33
2022-08-05T22:22:26.695Z,49.78
2022-08-05T22:25:21.873Z,49.32
2022-08-05T22:28:11.418Z,49.79
2022-08-05T22:30:55.770Z,49.73
2022-08-05T22:33:58.343Z,49.83
2022-08-05T22:36:15.564Z,50.60
2022-08-05T22:38:48.580Z,49.79
2022-08-05T22:42:05.694Z,49.87
2022-08-05T22:44:08.528Z,50.21
2022-08-05T22:46:39.957Z,50.05
2022-08-05T22:49:12.413Z,50.27
2022-08-05T22:52:04.579Z,50.80
2022-08-05T22:54:33.898Z,51.57
2022-08-05T22:57:00.889Z,51.39
2022-08-05T22:59:47.356Z,50.77
2022-08-05T23:02:18.109Z,51.15
2022-08-05T23:04:52.195Z,51.62
2022-08-05T23:07:22.059Z,51.47
2022-08-05T23:09:57.531Z,51.55
2022-08-05T23:12:32.907Z,52.06
2022-08-05T23:15:09.112Z,51.81
2022-08-05T23:17:59.874Z,52.14
2022-08-05T23:20:24.544Z,52.36
2022-08-05T23:22:55.865Z,52.60
2022-08-05T23:25:53.470Z,52.41
2022-08-05T23:28:11.485Z,52.70
2022-08-05T23:30:40.258Z,52.42
2022-08-05T23:33:16.461Z,52.70
2022-08-05T23:35:50.937Z,53.12
2022-08-05T23:38:18.221Z,52.19
2022-08-05T23:40:49.901Z,52.33
2022-08-05T23:43:25.047Z,52.41
2022-08-05T23:46:19.573Z,52.05
2022-08-05T23:48:46.686Z,52.99
2022-08-05T23:51:53.444Z,52.42
2022-08-05T23:54:26.451Z,52.83
2022-08-05T23:57:03.690Z,53.35
